createdAt,value
2022-10-06T00:00:18.265Z,4.20
2022-10-06T00:00:39.361Z,4.10
2022-10-06T00:01:00.482Z,4.30
2022-10-06T00:01:21.570Z,4.30
2022-10-06T00:01:42.847Z,4.50
2022-10-06T00:02:03.901Z,4.40
2022-10-06T00:02:29.941Z,4.30
2022-10-06T00:02:55.894Z,4.00
2022-10-06T00:03:16.990Z,4.30
2022-10-06T00:03:38.085Z,4.10
2022-10-06T00:04:04.066Z,4.20
2022-10-06T00:04:30.053Z,4.50
2022-10-06T00:04:51.135Z,4.20
2022-10-06T00:05:17.114Z,4.10
2022-10-06T00:05:38.215Z,4.40
2022-10-06T00:06:04.166Z,4.40
2022-10-06T00:06:25.216Z,4.60
2022-10-06T00:06:46.387Z,4.10
2022-10-06T00:07:07.448Z,4.40
2022-10-06T00:07:28.511Z,3.80
2022-10-06T00:07:49.560Z,4.10
2022-10-06T00:08:10.609Z,4.20
2022-10-06T00:08:31.898Z,4.10
2022-10-06T00:08:52.948Z,4.40
2022-10-06T00:09:13.997Z,4.20
2022-10-06T00:09:35.057Z,4.30
2022-10-06T00:09:56.114Z,4.30
2022-10-06T00:10:17.158Z,4.20
2022-10-06T00:10:38.224Z,4.10
2022-10-06T00:10:59.262Z,4.00
2022-10-06T00:11:20.306Z,4.20
2022-10-06T00:11:41.356Z,4.50
2022-10-06T00:12:02.442Z,4.40
2022-10-06T00:12:23.483Z,4.40
2022-10-06T00:12:44.545Z,4.40
2022-10-06T00:13:05.596Z,4.20
2022-10-06T00:13:26.649Z,3.90
2022-10-06T00:13:47.707Z,4.10
2022-10-06T00:14:08.755Z,4.30
2022-10-06T00:14:29.814Z,4.30
2022-10-06T00:14:50.877Z,4.40
2022-10-06T00:15:11.941Z,4.40
2022-10-06T00:15:33.064Z,4.40
2022-10-06T00:15:54.189Z,4.60
2022-10-06T00:16:15.330Z,4.60
2022-10-06T00:16:36.472Z,4.50
2022-10-06T00:16:57.523Z,4.10
2022-10-06T00:17:18.591Z,4.20
2022-10-06T00:17:39.649Z,4.40
2022-10-06T00:18:00.735Z,4.40
2022-10-06T00:18:21.762Z,4.20
2022-10-06T00:18:42.806Z,4.50
2022-10-06T00:19:03.860Z,4.60
2022-10-06T00:19:24.921Z,3.90
2022-10-06T00:19:45.973Z,4.00
2022-10-06T00:20:07.023Z,4.20
2022-10-06T00:20:28.073Z,4.00
2022-10-06T00:20:49.124Z,4.20
2022-10-06T00:21:10.176Z,4.20
2022-10-06T00:21:31.230Z,4.20
2022-10-06T00:21:52.321Z,4.20
2022-10-06T00:22:13.365Z,4.00
2022-10-06T00:22:34.419Z,4.30
2022-10-06T00:22:55.482Z,4.30
2022-10-06T00:23:16.535Z,3.90
2022-10-06T00:23:37.603Z,4.40
2022-10-06T00:23:58.637Z,4.30
2022-10-06T00:24:19.695Z,4.10
2022-10-06T00:24:40.750Z,4.60
2022-10-06T00:25:01.797Z,4.50
2022-10-06T00:25:22.851Z,4.60
2022-10-06T00:25:43.919Z,4.70
2022-10-06T00:26:04.949Z,4.20
2022-10-06T00:26:26.010Z,3.90
2022-10-06T00:26:47.060Z,4.00
2022-10-06T00:27:08.131Z,4.40
2022-10-06T00:27:29.186Z,4.20
2022-10-06T00:27:50.230Z,3.90
2022-10-06T00:28:11.354Z,3.90
2022-10-06T00:28:33.216Z,4.10
2022-10-06T00:28:54.612Z,4.60
2022-10-06T00:29:15.670Z,4.50
2022-10-06T00:29:36.721Z,4.40
2022-10-06T00:29:57.785Z,4.50
2022-10-06T00:30:18.839Z,4.90
2022-10-06T00:30:39.903Z,4.70
2022-10-06T00:31:00.997Z,4.40
2022-10-06T00:31:22.071Z,4.40
2022-10-06T00:31:43.094Z,4.60
2022-10-06T00:32:04.156Z,4.60
2022-10-06T00:32:25.232Z,4.70
2022-10-06T00:32:46.280Z,4.30
2022-10-06T00:33:07.312Z,4.30
2022-10-06T00:33:28.375Z,4.40
2022-10-06T00:33:49.419Z,4.30
2022-10-06T00:34:10.482Z,4.30
2022-10-06T00:34:31.521Z,4.10
2022-10-06T00:34:52.595Z,4.20
2022-10-06T00:35:13.651Z,4.20
2022-10-06T00:35:34.739Z,4.50
2022-10-06T00:35:55.775Z,4.50
2022-10-06T00:36:16.830Z,3.90
2022-10-06T00:36:37.883Z,4.20
2022-10-06T00:36:58.925Z,4.10
2022-10-06T00:37:19.981Z,4.10
2022-10-06T00:37:41.051Z,3.60
2022-10-06T00:38:02.097Z,3.60
2022-10-06T00:38:23.149Z,3.90
2022-10-06T00:38:44.203Z,3.80
2022-10-06T00:39:05.252Z,4.20
2022-10-06T00:39:26.299Z,4.10
2022-10-06T00:39:47.352Z,4.00
2022-10-06T00:40:08.401Z,3.90
2022-10-06T00:40:29.449Z,4.10
2022-10-06T00:40:50.535Z,4.30
2022-10-06T00:41:11.570Z,3.90
2022-10-06T00:41:32.618Z,3.90
2022-10-06T00:41:53.679Z,3.60
2022-10-06T00:42:14.727Z,3.80
2022-10-06T00:42:35.785Z,4.20
2022-10-06T00:42:56.849Z,3.90
2022-10-06T00:43:17.897Z,3.80
2022-10-06T00:43:38.954Z,4.10
2022-10-06T00:44:00.012Z,3.90
2022-10-06T00:44:21.066Z,3.50
2022-10-06T00:44:42.124Z,3.70
2022-10-06T00:45:03.174Z,3.70
2022-10-06T00:45:24.223Z,4.10
2022-10-06T00:45:45.282Z,3.80
2022-10-06T00:46:06.357Z,3.90
2022-10-06T00:46:27.424Z,3.90
2022-10-06T00:46:48.506Z,3.90
2022-10-06T00:47:09.554Z,3.80
2022-10-06T00:47:30.615Z,3.80
2022-10-06T00:47:51.660Z,3.80
2022-10-06T00:48:12.739Z,4.00
2022-10-06T00:48:33.796Z,3.70
2022-10-06T00:48:54.841Z,3.70
2022-10-06T00:49:15.899Z,3.80
2022-10-06T00:49:36.937Z,3.90
2022-10-06T00:49:57.987Z,4.20
2022-10-06T00:50:19.046Z,4.10
2022-10-06T00:50:40.096Z,4.00
2022-10-06T00:51:01.144Z,3.90
2022-10-06T00:51:22.202Z,4.30
2022-10-06T00:51:43.248Z,4.20
2022-10-06T00:52:04.299Z,4.10
2022-10-06T00:52:25.364Z,3.80
2022-10-06T00:52:46.427Z,3.50
2022-10-06T00:53:07.473Z,3.60
2022-10-06T00:53:28.622Z,4.10
2022-10-06T00:53:49.674Z,3.70
2022-10-06T00:54:10.723Z,3.70
2022-10-06T00:54:31.799Z,3.80
2022-10-06T00:54:52.835Z,3.90
2022-10-06T00:55:13.893Z,4.00
2022-10-06T00:55:34.947Z,3.80
2022-10-06T00:55:56.028Z,3.50
2022-10-06T00:56:17.057Z,3.80
2022-10-06T00:56:38.127Z,3.60
2022-10-06T00:56:59.305Z,3.80
2022-10-06T00:57:20.364Z,3.70
2022-10-06T00:57:41.401Z,3.80
2022-10-06T00:58:02.457Z,4.00
2022-10-06T00:58:23.525Z,3.70
2022-10-06T00:58:44.561Z,3.60
2022-10-06T00:59:05.612Z,3.50
2022-10-06T00:59:26.689Z,3.30
2022-10-06T00:59:47.741Z,3.60
2022-10-06T01:00:08.785Z,3.70
2022-10-06T01:00:29.841Z,3.60
2022-10-06T01:00:50.898Z,3.50
2022-10-06T01:01:12.000Z,3.50
2022-10-06T01:01:33.102Z,3.70
2022-10-06T01:01:54.137Z,3.80
2022-10-06T01:02:15.378Z,3.60
2022-10-06T01:02:36.470Z,3.70
2022-10-06T01:02:57.554Z,3.80
2022-10-06T01:03:18.574Z,3.50
2022-10-06T01:03:39.632Z,3.60
2022-10-06T01:04:00.678Z,3.40
2022-10-06T01:04:21.793Z,3.40
2022-10-06T01:04:42.814Z,3.80
2022-10-06T01:05:03.868Z,3.70
2022-10-06T01:05:24.915Z,3.80
2022-10-06T01:05:45.975Z,3.80
2022-10-06T01:06:07.020Z,3.60
2022-10-06T01:06:28.088Z,3.40
2022-10-06T01:06:49.134Z,3.50
2022-10-06T01:07:10.199Z,3.80
2022-10-06T01:07:31.372Z,3.80
2022-10-06T01:07:52.421Z,3.60
2022-10-06T01:08:13.481Z,3.70
2022-10-06T01:08:34.528Z,3.70
2022-10-06T01:08:55.588Z,3.70
2022-10-06T01:09:16.643Z,3.80
2022-10-06T01:09:37.695Z,3.90
2022-10-06T01:09:58.764Z,3.60
2022-10-06T01:10:19.799Z,3.70
2022-10-06T01:10:40.846Z,3.80
2022-10-06T01:11:01.929Z,3.70
2022-10-06T01:11:22.961Z,4.00
2022-10-06T01:11:44.019Z,3.80
2022-10-06T01:12:05.075Z,3.70
2022-10-06T01:12:26.120Z,4.10
2022-10-06T01:12:47.292Z,3.70
2022-10-06T01:13:08.349Z,3.70
2022-10-06T01:13:29.406Z,4.10
2022-10-06T01:13:50.458Z,3.40
2022-10-06T01:14:11.509Z,3.60
2022-10-06T01:14:32.560Z,3.90
2022-10-06T01:14:53.617Z,4.10
2022-10-06T01:15:14.663Z,3.90
2022-10-06T01:15:35.736Z,3.70
2022-10-06T01:15:56.865Z,3.50
2022-10-06T01:16:17.959Z,3.70
2022-10-06T01:16:38.993Z,3.70
2022-10-06T01:17:00.049Z,4.10
2022-10-06T01:17:21.222Z,4.00
2022-10-06T01:17:42.273Z,4.10
2022-10-06T01:18:03.322Z,3.90
2022-10-06T01:18:24.375Z,3.90
2022-10-06T01:18:45.430Z,3.80
2022-10-06T01:19:06.488Z,4.20
2022-10-06T01:19:27.542Z,4.10
2022-10-06T01:19:48.601Z,4.10
2022-10-06T01:20:09.661Z,4.00
2022-10-06T01:20:30.736Z,4.30
2022-10-06T01:20:51.773Z,4.10
2022-10-06T01:21:12.828Z,4.00
2022-10-06T01:21:33.900Z,4.00
2022-10-06T01:21:54.959Z,4.20
2022-10-06T01:22:16.107Z,3.90
2022-10-06T01:22:37.156Z,3.80
2022-10-06T01:22:58.202Z,3.90
2022-10-06T01:23:19.257Z,3.90
2022-10-06T01:23:40.302Z,3.90
2022-10-06T01:24:01.358Z,4.00
2022-10-06T01:24:22.421Z,4.00
2022-10-06T01:24:43.467Z,3.90
2022-10-06T01:25:04.521Z,4.20
2022-10-06T01:25:25.573Z,4.40
2022-10-06T01:25:46.622Z,4.00
2022-10-06T01:26:07.692Z,4.10
2022-10-06T01:26:28.728Z,3.70
2022-10-06T01:26:49.769Z,4.10
2022-10-06T01:27:10.822Z,4.40
2022-10-06T01:27:31.989Z,4.00
2022-10-06T01:27:53.048Z,4.20
2022-10-06T01:28:14.170Z,4.30
2022-10-06T01:28:35.250Z,4.50
2022-10-06T01:28:56.299Z,4.40
2022-10-06T01:29:17.355Z,4.20
2022-10-06T01:29:38.425Z,4.00
2022-10-06T01:29:59.464Z,4.00
2022-10-06T01:30:20.528Z,4.00
2022-10-06T01:30:41.638Z,3.90
2022-10-06T01:31:02.830Z,3.90
2022-10-06T01:31:23.963Z,4.20
2022-10-06T01:31:44.983Z,4.20
2022-10-06T01:32:06.034Z,4.10
2022-10-06T01:32:27.085Z,3.90
2022-10-06T01:32:48.164Z,4.20
2022-10-06T01:33:09.220Z,4.20
2022-10-06T01:33:30.285Z,3.80
2022-10-06T01:33:51.333Z,3.90
2022-10-06T01:34:12.385Z,3.80
2022-10-06T01:34:33.431Z,4.00
2022-10-06T01:34:54.482Z,3.90
2022-10-06T01:35:15.534Z,3.70
2022-10-06T01:35:36.588Z,3.90
2022-10-06T01:35:57.633Z,3.70
2022-10-06T01:36:18.690Z,3.90
2022-10-06T01:36:39.740Z,4.20
2022-10-06T01:37:00.796Z,4.00
2022-10-06T01:37:21.853Z,3.80
2022-10-06T01:37:42.911Z,4.20
2022-10-06T01:38:03.991Z,3.90
2022-10-06T01:38:25.107Z,4.10
2022-10-06T01:38:46.143Z,4.20
2022-10-06T01:39:07.195Z,4.00
2022-10-06T01:39:28.235Z,4.50
2022-10-06T01:39:49.290Z,4.60
2022-10-06T01:40:10.349Z,3.90
2022-10-06T01:40:31.408Z,3.90
2022-10-06T01:40:52.457Z,4.20
2022-10-06T01:41:13.536Z,4.00
2022-10-06T01:41:34.574Z,4.30
2022-10-06T01:41:55.632Z,4.20
2022-10-06T01:42:16.684Z,4.10
2022-10-06T01:42:37.730Z,4.30
2022-10-06T01:42:58.786Z,4.10
2022-10-06T01:43:19.856Z,3.70
2022-10-06T01:43:40.916Z,3.80
2022-10-06T01:44:01.963Z,4.40
2022-10-06T01:44:23.018Z,4.20
2022-10-06T01:44:44.070Z,4.10
2022-10-06T01:45:05.135Z,4.20
2022-10-06T01:45:26.196Z,3.70
2022-10-06T01:45:47.258Z,3.90
2022-10-06T01:46:08.376Z,4.20
2022-10-06T01:46:29.508Z,4.20
2022-10-06T01:46:50.580Z,4.20
2022-10-06T01:47:11.601Z,3.90
2022-10-06T01:47:32.653Z,3.80
2022-10-06T01:47:53.709Z,4.10
2022-10-06T01:48:14.757Z,4.30
2022-10-06T01:48:35.818Z,4.40
2022-10-06T01:48:56.879Z,4.10
2022-10-06T01:49:17.931Z,3.60
2022-10-06T01:49:38.973Z,3.70
2022-10-06T01:50:00.046Z,3.90
2022-10-06T01:50:21.099Z,3.80
2022-10-06T01:50:42.143Z,3.90
2022-10-06T01:51:03.197Z,4.00
2022-10-06T01:51:24.253Z,4.10
2022-10-06T01:51:45.310Z,3.90
2022-10-06T01:52:06.374Z,3.70
2022-10-06T01:52:27.426Z,3.50
2022-10-06T01:52:48.494Z,3.80
2022-10-06T01:53:09.566Z,3.60
2022-10-06T01:53:30.613Z,3.80
2022-10-06T01:53:51.667Z,3.90
2022-10-06T01:54:12.715Z,3.90
2022-10-06T01:54:33.791Z,3.70
2022-10-06T01:54:54.832Z,3.70
2022-10-06T01:55:15.888Z,3.60
2022-10-06T01:55:36.934Z,3.60
2022-10-06T01:55:57.983Z,3.60
2022-10-06T01:56:19.044Z,3.80
2022-10-06T01:56:40.077Z,4.10
2022-10-06T01:57:01.136Z,3.60
2022-10-06T01:57:22.187Z,3.30
2022-10-06T01:57:43.236Z,3.50
2022-10-06T01:58:04.309Z,3.90
2022-10-06T01:58:25.663Z,3.90
2022-10-06T01:58:46.883Z,4.20
2022-10-06T01:59:07.920Z,4.50
2022-10-06T01:59:28.969Z,3.90
2022-10-06T01:59:54.582Z,3.80
2022-10-06T02:00:16.992Z,3.80
2022-10-06T02:00:38.032Z,3.60
2022-10-06T02:00:59.100Z,3.30
2022-10-06T02:01:20.200Z,3.40
2022-10-06T02:01:41.282Z,3.70
2022-10-06T02:02:02.376Z,3.60
2022-10-06T02:02:23.460Z,3.70
2022-10-06T02:02:44.512Z,4.10
2022-10-06T02:03:05.570Z,3.90
2022-10-06T02:03:26.630Z,3.50
2022-10-06T02:03:47.699Z,3.60
2022-10-06T02:04:08.805Z,3.40
2022-10-06T02:04:29.853Z,3.60
2022-10-06T02:04:50.922Z,4.10
2022-10-06T02:05:11.978Z,4.10
2022-10-06T02:05:33.036Z,3.70
2022-10-06T02:05:54.115Z,4.00
2022-10-06T02:06:15.187Z,4.10
2022-10-06T02:06:36.300Z,3.90
2022-10-06T02:06:57.348Z,3.80
2022-10-06T02:07:18.398Z,3.70
2022-10-06T02:07:39.455Z,3.60
2022-10-06T02:08:00.507Z,3.70
2022-10-06T02:08:21.706Z,3.70
2022-10-06T02:08:42.755Z,3.50
2022-10-06T02:09:03.817Z,3.90
2022-10-06T02:09:24.863Z,3.80
2022-10-06T02:09:45.915Z,3.50
2022-10-06T02:10:06.980Z,3.60
2022-10-06T02:10:28.015Z,3.90
2022-10-06T02:10:49.075Z,3.80
2022-10-06T02:11:10.123Z,3.70
2022-10-06T02:11:31.180Z,3.60
2022-10-06T02:11:52.229Z,3.60
2022-10-06T02:12:13.277Z,3.70
2022-10-06T02:12:34.338Z,4.00
2022-10-06T02:12:55.385Z,4.00
2022-10-06T02:13:16.435Z,4.10
2022-10-06T02:13:37.499Z,3.90
2022-10-06T02:13:58.549Z,4.10
2022-10-06T02:14:19.607Z,4.00
2022-10-06T02:14:40.670Z,4.00
2022-10-06T02:15:01.722Z,4.00
2022-10-06T02:15:22.766Z,3.80
2022-10-06T02:15:43.862Z,3.70
2022-10-06T02:16:04.998Z,3.70
2022-10-06T02:16:26.106Z,3.70
2022-10-06T02:16:47.124Z,3.50
2022-10-06T02:17:08.178Z,3.80
2022-10-06T02:17:29.238Z,3.90
2022-10-06T02:17:50.289Z,4.30
2022-10-06T02:18:11.378Z,4.10
2022-10-06T02:18:32.678Z,3.90
2022-10-06T02:18:53.755Z,4.50
2022-10-06T02:19:14.807Z,4.20
2022-10-06T02:19:35.857Z,4.00
2022-10-06T02:19:56.918Z,3.90
2022-10-06T02:20:17.970Z,3.80
2022-10-06T02:20:39.023Z,4.10
2022-10-06T02:21:00.076Z,3.90
2022-10-06T02:21:21.127Z,3.80
2022-10-06T02:21:42.187Z,3.50
2022-10-06T02:22:03.247Z,3.60
2022-10-06T02:22:24.291Z,3.70
2022-10-06T02:22:45.352Z,3.90
2022-10-06T02:23:06.410Z,4.10
2022-10-06T02:23:27.491Z,3.70
2022-10-06T02:23:48.547Z,3.50
2022-10-06T02:24:09.597Z,3.60
2022-10-06T02:24:30.638Z,4.10
2022-10-06T02:24:51.701Z,4.00
2022-10-06T02:25:12.748Z,4.00
2022-10-06T02:25:33.797Z,4.00
2022-10-06T02:25:54.847Z,4.00
2022-10-06T02:26:15.897Z,3.70
2022-10-06T02:26:36.966Z,3.60
2022-10-06T02:26:57.997Z,3.80
2022-10-06T02:27:19.051Z,4.10
2022-10-06T02:27:40.112Z,4.10
2022-10-06T02:28:01.185Z,3.90
2022-10-06T02:28:22.249Z,3.90
2022-10-06T02:28:43.464Z,3.60
2022-10-06T02:29:04.506Z,4.00
2022-10-06T02:29:25.550Z,3.70
2022-10-06T02:29:46.596Z,3.60
2022-10-06T02:30:07.655Z,3.90
2022-10-06T02:30:28.704Z,4.50
2022-10-06T02:30:49.830Z,4.20
2022-10-06T02:31:10.934Z,3.90
2022-10-06T02:31:31.997Z,3.60
2022-10-06T02:31:53.055Z,3.70
2022-10-06T02:32:14.104Z,3.90
2022-10-06T02:32:35.165Z,3.80
2022-10-06T02:32:56.211Z,4.10
2022-10-06T02:33:17.309Z,3.70
2022-10-06T02:33:38.391Z,3.80
2022-10-06T02:33:59.450Z,3.70
2022-10-06T02:34:20.495Z,3.70
2022-10-06T02:34:41.546Z,4.00
2022-10-06T02:35:02.608Z,3.70
2022-10-06T02:35:23.656Z,3.90
2022-10-06T02:35:44.714Z,3.80
2022-10-06T02:36:05.779Z,3.70
2022-10-06T02:36:26.841Z,3.60
2022-10-06T02:36:47.871Z,4.10
2022-10-06T02:37:08.927Z,3.80
2022-10-06T02:37:29.981Z,3.90
2022-10-06T02:37:51.024Z,3.80
2022-10-06T02:38:12.072Z,4.00
2022-10-06T02:38:33.141Z,4.10
2022-10-06T02:38:54.196Z,4.00
2022-10-06T02:39:15.242Z,4.00
2022-10-06T02:39:36.288Z,3.90
2022-10-06T02:39:57.353Z,4.10
2022-10-06T02:40:18.406Z,4.00
2022-10-06T02:40:39.446Z,4.00
2022-10-06T02:41:00.504Z,3.80
2022-10-06T02:41:21.562Z,3.80
2022-10-06T02:41:42.633Z,4.10
2022-10-06T02:42:03.656Z,4.10
2022-10-06T02:42:24.710Z,3.80
2022-10-06T02:42:45.773Z,4.00
2022-10-06T02:43:06.807Z,4.20
2022-10-06T02:43:27.861Z,4.00
2022-10-06T02:43:48.926Z,4.00
2022-10-06T02:44:09.993Z,3.80
2022-10-06T02:44:31.042Z,3.80
2022-10-06T02:44:52.098Z,4.00
2022-10-06T02:45:13.158Z,3.90
2022-10-06T02:45:34.194Z,4.00
2022-10-06T02:45:55.244Z,4.00
2022-10-06T02:46:16.351Z,4.00
2022-10-06T02:46:37.453Z,4.00
2022-10-06T02:46:58.518Z,4.40
2022-10-06T02:47:19.554Z,4.20
2022-10-06T02:47:40.607Z,4.10
2022-10-06T02:48:01.649Z,4.20
2022-10-06T02:48:22.708Z,3.90
2022-10-06T02:48:43.755Z,4.30
2022-10-06T02:49:04.824Z,4.10
2022-10-06T02:49:25.867Z,3.90
2022-10-06T02:49:46.920Z,4.10
2022-10-06T02:50:07.974Z,4.00
2022-10-06T02:50:29.020Z,4.20
2022-10-06T02:50:50.054Z,3.90
2022-10-06T02:51:11.103Z,3.90
2022-10-06T02:51:32.146Z,4.30
2022-10-06T02:51:53.206Z,4.10
2022-10-06T02:52:14.265Z,3.70
2022-10-06T02:52:35.320Z,4.00
2022-10-06T02:52:56.378Z,4.20
2022-10-06T02:53:17.427Z,4.00
2022-10-06T02:53:38.472Z,3.80
2022-10-06T02:53:59.526Z,3.70
2022-10-06T02:54:20.588Z,3.70
2022-10-06T02:54:41.645Z,3.60
2022-10-06T02:55:02.687Z,3.60
2022-10-06T02:55:23.727Z,3.70
2022-10-06T02:55:44.764Z,4.00
2022-10-06T02:56:05.826Z,3.80
2022-10-06T02:56:26.908Z,3.80
2022-10-06T02:56:47.940Z,3.70
2022-10-06T02:57:08.981Z,3.40
2022-10-06T02:57:30.028Z,3.80
2022-10-06T02:57:51.088Z,3.80
2022-10-06T02:58:12.134Z,4.00
2022-10-06T02:58:33.215Z,3.80
2022-10-06T02:58:54.227Z,3.70
2022-10-06T02:59:15.293Z,3.90
2022-10-06T02:59:36.384Z,3.50
2022-10-06T02:59:57.453Z,3.60
2022-10-06T03:00:18.507Z,3.60
2022-10-06T03:00:39.541Z,3.40
2022-10-06T03:01:00.601Z,3.60
2022-10-06T03:01:21.734Z,3.60
2022-10-06T03:01:42.896Z,3.80
2022-10-06T03:02:04.065Z,3.50
2022-10-06T03:02:25.258Z,3.40
2022-10-06T03:02:46.496Z,3.50
2022-10-06T03:03:07.649Z,3.40
2022-10-06T03:03:28.715Z,3.40
2022-10-06T03:03:49.777Z,3.40
2022-10-06T03:04:10.820Z,3.60
2022-10-06T03:04:31.888Z,3.30
2022-10-06T03:04:53.063Z,3.60
2022-10-06T03:05:14.106Z,3.50
2022-10-06T03:05:35.161Z,3.50
2022-10-06T03:05:56.219Z,3.60
2022-10-06T03:06:17.270Z,3.30
2022-10-06T03:06:38.334Z,3.40
2022-10-06T03:06:59.380Z,3.30
2022-10-06T03:07:20.447Z,3.30
2022-10-06T03:07:41.478Z,3.30
2022-10-06T03:08:02.521Z,3.50
2022-10-06T03:08:23.602Z,3.10
2022-10-06T03:08:44.689Z,3.20
2022-10-06T03:09:05.751Z,3.00
2022-10-06T03:09:26.808Z,2.90
2022-10-06T03:09:47.852Z,3.00
2022-10-06T03:10:08.931Z,3.10
2022-10-06T03:10:29.969Z,3.10
2022-10-06T03:10:51.033Z,3.10
2022-10-06T03:11:12.092Z,3.00
2022-10-06T03:11:33.145Z,3.10
2022-10-06T03:11:54.235Z,2.90
2022-10-06T03:12:15.281Z,2.80
2022-10-06T03:12:36.316Z,2.80
2022-10-06T03:12:57.384Z,2.60
2022-10-06T03:13:18.431Z,2.70
2022-10-06T03:13:39.471Z,2.60
2022-10-06T03:14:00.546Z,2.40
2022-10-06T03:14:22.298Z,2.30
2022-10-06T03:14:43.358Z,2.00
2022-10-06T03:15:04.411Z,1.90
2022-10-06T03:15:25.465Z,2.20
2022-10-06T03:15:46.726Z,2.30
2022-10-06T03:16:07.842Z,2.00
2022-10-06T03:16:28.903Z,1.90
2022-10-06T03:16:49.915Z,1.60
2022-10-06T03:17:10.957Z,1.70
2022-10-06T03:17:32.007Z,1.70
2022-10-06T03:17:53.063Z,1.50
2022-10-06T03:18:14.119Z,1.50
2022-10-06T03:18:35.180Z,1.50
2022-10-06T03:18:56.227Z,1.60
2022-10-06T03:19:17.296Z,1.40
2022-10-06T03:19:38.354Z,1.30
2022-10-06T03:19:59.411Z,1.30
2022-10-06T03:20:20.468Z,1.10
2022-10-06T03:20:41.515Z,1.10
2022-10-06T03:21:02.579Z,1.20
2022-10-06T03:21:23.646Z,1.20
2022-10-06T03:21:44.687Z,1.10
2022-10-06T03:22:05.735Z,1.00
2022-10-06T03:22:26.785Z,0.90
2022-10-06T03:22:47.838Z,1.00
2022-10-06T03:23:13.312Z,0.90
2022-10-06T03:23:34.603Z,0.80
2022-10-06T03:23:55.653Z,0.70
2022-10-06T03:24:16.713Z,0.80
2022-10-06T03:24:37.776Z,0.80
2022-10-06T03:24:58.836Z,0.70
2022-10-06T03:25:19.886Z,0.70
2022-10-06T03:25:40.941Z,0.80
2022-10-06T03:26:02.003Z,0.60
2022-10-06T03:26:23.052Z,0.60
2022-10-06T03:26:44.102Z,0.60
2022-10-06T03:27:05.173Z,0.70
2022-10-06T03:27:26.202Z,0.80
2022-10-06T03:27:47.252Z,0.80
2022-10-06T03:28:08.333Z,0.60
2022-10-06T03:28:29.804Z,0.70
2022-10-06T03:28:50.964Z,0.60
2022-10-06T03:29:12.193Z,0.60
2022-10-06T03:29:33.239Z,0.60
2022-10-06T03:29:54.407Z,0.60
2022-10-06T03:30:15.457Z,0.60
2022-10-06T03:30:36.507Z,0.60
2022-10-06T03:30:57.630Z,0.60
2022-10-06T03:31:18.735Z,0.50
2022-10-06T03:31:39.953Z,0.50
2022-10-06T03:32:01.072Z,0.60
2022-10-06T03:32:22.122Z,0.60
2022-10-06T03:32:43.176Z,0.60
2022-10-06T03:33:04.230Z,0.50
2022-10-06T03:33:25.268Z,0.50
2022-10-06T03:33:46.346Z,0.50
2022-10-06T03:34:07.382Z,0.40
2022-10-06T03:34:28.436Z,0.50
2022-10-06T03:34:49.547Z,0.50
2022-10-06T03:35:10.894Z,0.50
2022-10-06T03:35:32.021Z,0.50
2022-10-06T03:35:53.070Z,0.50
2022-10-06T03:36:14.140Z,0.40
2022-10-06T03:36:35.207Z,0.50
2022-10-06T03:36:56.248Z,0.40
2022-10-06T03:37:17.300Z,0.40
2022-10-06T03:37:38.352Z,0.50
2022-10-06T03:37:59.400Z,0.30
2022-10-06T03:38:20.457Z,0.40
2022-10-06T03:38:41.513Z,0.40
2022-10-06T03:39:02.598Z,0.60
2022-10-06T03:39:23.625Z,0.70
2022-10-06T03:39:44.675Z,0.40
2022-10-06T03:40:05.722Z,0.50
2022-10-06T03:40:26.801Z,0.50
2022-10-06T03:40:47.868Z,0.40
2022-10-06T03:41:08.920Z,0.40
2022-10-06T03:41:29.960Z,0.40
2022-10-06T03:41:51.007Z,0.40
2022-10-06T03:42:12.077Z,0.40
2022-10-06T03:42:33.118Z,0.40
2022-10-06T03:42:54.172Z,0.40
2022-10-06T03:43:15.225Z,0.40
2022-10-06T03:43:36.275Z,0.30
2022-10-06T03:43:57.324Z,0.40
2022-10-06T03:44:18.396Z,0.30
2022-10-06T03:44:39.448Z,0.50
2022-10-06T03:45:00.515Z,0.50
2022-10-06T03:45:21.558Z,0.50
2022-10-06T03:45:42.614Z,0.50
2022-10-06T03:46:03.663Z,0.40
2022-10-06T03:46:24.758Z,0.40
2022-10-06T03:46:45.801Z,0.40
2022-10-06T03:47:06.876Z,0.40
2022-10-06T03:47:27.961Z,0.40
2022-10-06T03:47:49.020Z,0.40
2022-10-06T03:48:10.077Z,0.40
2022-10-06T03:48:31.730Z,0.50
2022-10-06T03:48:52.883Z,0.50
2022-10-06T03:49:13.935Z,0.40
2022-10-06T03:49:34.990Z,0.40
2022-10-06T03:49:56.037Z,0.40
2022-10-06T03:50:17.207Z,0.30
2022-10-06T03:50:38.257Z,0.40
2022-10-06T03:50:59.301Z,0.40
2022-10-06T03:51:20.355Z,0.50
2022-10-06T03:51:41.423Z,0.50
2022-10-06T03:52:02.476Z,0.50
2022-10-06T03:52:26.029Z,0.50
2022-10-06T03:52:47.248Z,0.40
2022-10-06T03:53:08.318Z,0.40
2022-10-06T03:53:29.368Z,0.40
2022-10-06T03:53:50.422Z,0.30
2022-10-06T03:54:11.475Z,0.50
2022-10-06T03:54:32.524Z,0.60
2022-10-06T03:54:53.695Z,0.50
2022-10-06T03:55:14.746Z,0.40
2022-10-06T03:55:35.797Z,0.40
2022-10-06T03:55:56.861Z,0.40
2022-10-06T03:56:17.928Z,0.40
2022-10-06T03:56:39.087Z,0.30
2022-10-06T03:57:00.135Z,0.40
2022-10-06T03:57:21.202Z,0.50
2022-10-06T03:57:42.235Z,0.60
2022-10-06T03:58:03.279Z,0.50
2022-10-06T03:58:24.328Z,0.50
2022-10-06T03:58:45.382Z,0.40
2022-10-06T03:59:06.442Z,0.50
2022-10-06T03:59:27.498Z,0.50
2022-10-06T03:59:48.544Z,0.40
2022-10-06T04:00:09.616Z,0.40
2022-10-06T04:00:30.668Z,0.50
2022-10-06T04:00:51.802Z,0.50
2022-10-06T04:01:12.949Z,0.50
2022-10-06T04:01:34.050Z,0.50
2022-10-06T04:01:55.112Z,0.50
2022-10-06T04:02:16.190Z,0.60
2022-10-06T04:02:37.214Z,0.50
2022-10-06T04:02:58.277Z,0.50
2022-10-06T04:03:19.319Z,0.50
2022-10-06T04:03:40.369Z,0.40
2022-10-06T04:04:01.421Z,0.40
2022-10-06T04:04:22.486Z,0.50
2022-10-06T04:04:43.532Z,0.50
2022-10-06T04:05:04.594Z,0.50
2022-10-06T04:05:25.639Z,0.50
2022-10-06T04:05:46.696Z,0.50
2022-10-06T04:06:07.755Z,0.40
2022-10-06T04:06:28.805Z,0.50
2022-10-06T04:06:49.864Z,0.40
2022-10-06T04:07:10.918Z,0.50
2022-10-06T04:07:31.981Z,0.60
2022-10-06T04:07:53.044Z,0.60
2022-10-06T04:08:14.099Z,0.50
2022-10-06T04:08:35.171Z,0.60
2022-10-06T04:08:56.224Z,0.70
2022-10-06T04:09:17.281Z,0.60
2022-10-06T04:09:38.347Z,0.60
2022-10-06T04:09:59.404Z,0.80
2022-10-06T04:10:20.465Z,0.70
2022-10-06T04:10:41.525Z,0.60
2022-10-06T04:11:02.581Z,0.60
2022-10-06T04:11:23.640Z,0.50
2022-10-06T04:11:44.739Z,0.60
2022-10-06T04:12:05.776Z,0.60
2022-10-06T04:12:26.846Z,0.50
2022-10-06T04:12:47.878Z,0.60
2022-10-06T04:13:08.939Z,0.40
2022-10-06T04:13:29.990Z,0.50
2022-10-06T04:13:51.038Z,0.50
2022-10-06T04:14:12.103Z,0.50
2022-10-06T04:14:33.155Z,0.50
2022-10-06T04:14:57.879Z,0.60
2022-10-06T04:15:21.297Z,0.40
2022-10-06T04:15:42.365Z,0.50
2022-10-06T04:16:03.448Z,0.60
2022-10-06T04:16:24.541Z,0.40
2022-10-06T04:16:45.746Z,0.50
2022-10-06T04:17:06.883Z,0.40
2022-10-06T04:17:27.930Z,0.40
2022-10-06T04:17:48.991Z,0.30
2022-10-06T04:18:10.059Z,0.50
2022-10-06T04:18:31.720Z,0.50
2022-10-06T04:18:53.078Z,0.40
2022-10-06T04:19:14.190Z,0.40
2022-10-06T04:19:35.256Z,0.40
2022-10-06T04:19:56.307Z,0.50
2022-10-06T04:20:17.364Z,0.60
2022-10-06T04:20:38.440Z,0.50
2022-10-06T04:20:59.505Z,0.50
2022-10-06T04:21:20.600Z,0.50
2022-10-06T04:21:41.638Z,0.60
2022-10-06T04:22:02.698Z,0.50
2022-10-06T04:22:23.734Z,0.60
2022-10-06T04:22:44.788Z,0.60
2022-10-06T04:23:05.878Z,0.60
2022-10-06T04:23:26.927Z,0.50
2022-10-06T04:23:47.989Z,0.50
2022-10-06T04:24:09.039Z,0.70
2022-10-06T04:24:30.126Z,0.60
2022-10-06T04:24:51.168Z,0.60
2022-10-06T04:25:12.245Z,0.50
2022-10-06T04:25:33.305Z,0.60
2022-10-06T04:25:56.062Z,0.60
2022-10-06T04:26:17.140Z,0.70
2022-10-06T04:26:38.222Z,0.50
2022-10-06T04:26:59.273Z,0.80
2022-10-06T04:27:20.329Z,0.90
2022-10-06T04:27:41.464Z,0.40
2022-10-06T04:28:02.513Z,0.50
2022-10-06T04:28:23.595Z,0.50
2022-10-06T04:28:44.716Z,0.50
2022-10-06T04:29:05.754Z,0.70
2022-10-06T04:29:26.817Z,0.60
2022-10-06T04:29:47.882Z,0.60
2022-10-06T04:30:08.927Z,0.70
2022-10-06T04:30:29.983Z,0.60
2022-10-06T04:30:51.024Z,0.60
2022-10-06T04:31:12.103Z,0.60
2022-10-06T04:31:33.346Z,0.60
2022-10-06T04:31:54.576Z,0.70
2022-10-06T04:32:15.635Z,0.50
2022-10-06T04:32:36.692Z,0.70
2022-10-06T04:32:57.745Z,0.70
2022-10-06T04:33:18.792Z,0.60
2022-10-06T04:33:39.842Z,0.80
2022-10-06T04:34:00.900Z,0.80
2022-10-06T04:34:21.947Z,0.70
2022-10-06T04:34:43.006Z,0.60
2022-10-06T04:35:04.054Z,0.50
2022-10-06T04:35:25.217Z,0.50
2022-10-06T04:35:46.294Z,0.70
2022-10-06T04:36:07.343Z,0.70
2022-10-06T04:36:28.395Z,0.70
2022-10-06T04:36:49.446Z,0.60
2022-10-06T04:37:10.506Z,0.50
2022-10-06T04:37:31.562Z,0.70
2022-10-06T04:37:52.613Z,0.60
2022-10-06T04:38:13.665Z,0.60
2022-10-06T04:38:34.727Z,0.70
2022-10-06T04:38:55.776Z,0.60
2022-10-06T04:39:16.846Z,0.70
2022-10-06T04:39:37.916Z,0.60
2022-10-06T04:39:58.951Z,0.40
2022-10-06T04:40:20.021Z,0.50
2022-10-06T04:40:41.073Z,0.50
2022-10-06T04:41:02.129Z,0.60
2022-10-06T04:41:23.184Z,0.60